Time;durP1;ratioP1;P1;durP2;ratioP2;P2;SDS_P1;SDS_P2;PMS_P1;PMS_P2;Temp;Humidity;BMP_temperature;BMP_pressure;BME280_temperature;BME280_humidity;BME280_pressure;Samples;Min_cycle;Max_cycle;Signal;HPM_P1;HPM_P2
2022/08/04 00:02:24;;;;;;;0.00;0.00;;;;;;;15.37;61.76;100870.78;7359982;19;20030;-62
2022/08/04 00:05:21;;;;;;;0.10;0.10;;;;;;;15.28;60.85;100864.09;7351839;19;20843;-63
2022/08/04 00:07:58;;;;;;;0.00;0.00;;;;;;;15.29;62.38;100868.44;7252221;19;2004299;-64
2022/08/04 00:10:27;;;;;;;0.00;0.00;;;;;;;15.26;62.20;100884.34;7361141;19;20022;-64
2022/08/04 00:12:54;;;;;;;0.00;0.00;;;;;;;15.20;62.73;100880.16;7362878;19;20494;-64
2022/08/04 00:15:21;;;;;;;0.00;0.00;;;;;;;15.17;62.82;100882.94;7363031;19;20018;-64
2022/08/04 00:17:53;;;;;;;0.00;0.00;;;;;;;15.14;62.68;100885.66;7362377;19;20733;-65
2022/08/04 00:20:20;;;;;;;0.10;0.10;;;;;;;15.10;62.53;100878.81;7363880;19;20022;-65
2022/08/04 00:22:46;;;;;;;0.00;0.00;;;;;;;15.05;63.00;100880.75;7361629;19;20014;-64
2022/08/04 00:25:12;;;;;;;0.00;0.00;;;;;;;15.00;63.34;100877.44;7363777;19;20006;-64
2022/08/04 00:27:38;;;;;;;0.00;0.00;;;;;;;14.96;63.37;100875.88;7361149;19;20022;-64
2022/08/04 00:30:05;;;;;;;0.00;0.00;;;;;;;14.83;63.51;100858.84;7360232;19;20059;-64
2022/08/04 00:32:31;;;;;;;0.00;0.00;;;;;;;14.88;63.48;100877.91;7359313;19;20034;-64
2022/08/04 00:34:58;;;;;;;0.00;0.00;;;;;;;14.86;63.33;100882.41;7362821;19;20006;-65
2022/08/04 00:37:25;;;;;;;0.00;0.00;;;;;;;14.83;63.50;100880.72;7360772;19;20006;-64
2022/08/04 00:39:55;;;;;;;0.10;0.10;;;;;;;14.81;63.46;100876.44;7361524;19;20043;-65
2022/08/04 00:42:33;;;;;;;0.00;0.00;;;;;;;14.78;62.57;100880.88;7358886;19;21264;-64
2022/08/04 00:45:32;;;;;;;0.00;0.00;;;;;;;14.77;62.10;100876.56;7361405;19;20031;-64
2022/08/04 00:48:06;;;;;;;0.00;0.00;;;;;;;14.71;63.28;100882.03;7260056;19;2004117;-64
2022/08/04 00:51:09;;;;;;;0.00;0.00;;;;;;;14.68;62.19;100876.88;7357785;19;20106;-65
2022/08/04 00:53:56;;;;;;;0.00;0.00;;;;;;;14.62;61.49;100882.38;7257603;19;2004446;-64
2022/08/04 00:56:48;;;;;;;0.00;0.00;;;;;;;14.59;62.36;100879.84;7363475;19;20011;-64
2022/08/04 00:59:39;;;;;;;0.00;0.00;;;;;;;14.54;63.45;100884.41;7264337;19;2004550;-65
2022/08/04 01:02:27;;;;;;;0.00;0.00;;;;;;;14.50;62.91;100883.69;7265356;19;2004450;-64
2022/08/04 01:05:08;;;;;;;0.00;0.00;;;;;;;14.46;63.84;100882.03;7367810;19;20033;-64
2022/08/04 01:07:56;;;;;;;0.10;0.10;;;;;;;14.42;63.25;100879.59;7365478;19;20359;-64
2022/08/04 01:10:45;;;;;;;0.00;0.00;;;;;;;14.38;63.42;100875.34;7366542;19;20396;-64
2022/08/04 01:13:42;;;;;;;0.00;0.00;;;;;;;14.34;62.29;100878.97;7361426;19;20026;-64
2022/08/04 01:16:12;;;;;;;0.00;0.00;;;;;;;14.29;64.51;100868.63;7264910;19;2004404;-63
2022/08/04 01:18:54;;;;;;;0.00;0.00;;;;;;;14.27;63.64;100871.31;7366614;19;21785;-64
2022/08/04 01:21:28;;;;;;;0.00;0.00;;;;;;;14.26;63.70;100874.00;7366972;19;20015;-64
2022/08/04 01:24:08;;;;;;;0.00;0.00;;;;;;;14.23;64.71;100868.84;7367741;19;20348;-64
2022/08/04 01:26:42;;;;;;;0.00;0.00;;;;;;;14.20;64.74;100880.34;7366601;19;20563;-64
2022/08/04 01:29:12;;;;;;;0.00;0.00;;;;;;;14.20;64.00;100869.84;7366590;19;20002;-64
2022/08/04 01:32:00;;;;;;;0.00;0.00;;;;;;;14.19;64.10;100873.38;7366780;19;20010;-65
2022/08/04 01:34:29;;;;;;;0.00;0.00;;;;;;;14.18;64.75;100876.03;7365148;19;20010;-65
2022/08/04 01:37:05;;;;;;;0.00;0.00;;;;;;;14.15;64.02;100877.03;7365018;19;20010;-64
2022/08/04 01:39:41;;;;;;;0.05;0.05;;;;;;;14.14;64.58;100877.03;7366461;19;20463;-64
2022/08/04 01:42:09;;;;;;;0.00;0.00;;;;;;;14.16;64.00;100883.13;7368536;19;20014;-65
2022/08/04 01:44:36;;;;;;;0.00;0.00;;;;;;;14.14;64.71;100884.94;7363931;19;20779;-64
2022/08/04 01:47:02;;;;;;;0.00;0.00;;;;;;;14.11;64.57;100880.66;7367057;19;20114;-64
2022/08/04 01:49:30;;;;;;;0.00;0.00;;;;;;;14.10;64.43;100883.34;7364541;19;20014;-65
2022/08/04 01:51:56;;;;;;;0.00;0.00;;;;;;;14.08;64.24;100887.78;7366506;19;20357;-64
2022/08/04 01:54:22;;;;;;;0.00;0.00;;;;;;;13.95;64.53;100869.81;7365753;19;20014;-65
2022/08/04 01:56:49;;;;;;;0.00;0.00;;;;;;;14.01;64.31;100889.75;7366428;19;20463;-64
2022/08/04 01:59:18;;;;;;;0.00;0.00;;;;;;;13.99;64.11;100886.34;7355874;19;20009;-64
2022/08/04 02:01:43;;;;;;;0.00;0.00;;;;;;;13.88;64.33;100873.53;7364235;19;20010;-65
2022/08/04 02:04:18;;;;;;;0.00;0.00;;;;;;;13.94;63.69;100880.38;7365455;19;20066;-65
2022/08/04 02:07:06;;;;;;;0.00;0.00;;;;;;;13.90;64.30;100889.25;7361728;19;20007;-64
2022/08/04 02:10:01;;;;;;;0.00;0.00;;;;;;;13.88;63.34;100888.44;7362793;19;20007;-65
2022/08/04 02:12:42;;;;;;;0.00;0.00;;;;;;;13.76;63.53;100874.81;7262423;19;2004192;-65
2022/08/04 02:15:18;;;;;;;0.00;0.00;;;;;;;13.82;64.46;100879.00;7364317;19;20019;-65
2022/08/04 02:18:23;;;;;;;0.00;0.00;;;;;;;13.79;62.75;100888.75;7365332;19;20003;-65
2022/08/04 02:20:56;;;;;;;0.00;0.00;;;;;;;13.75;64.07;100883.59;7260075;19;2004297;-64
2022/08/04 02:23:33;;;;;;;0.00;0.00;;;;;;;13.70;63.89;100879.41;7364074;19;20042;-65
2022/08/04 02:26:12;;;;;;;0.00;0.00;;;;;;;13.68;63.36;100884.69;7361966;19;20022;-64
2022/08/04 02:29:10;;;;;;;0.00;0.00;;;;;;;13.56;62.87;100869.38;7364463;19;20022;-65
2022/08/04 02:31:45;;;;;;;0.00;0.00;;;;;;;13.61;63.92;100890.22;7261747;19;2004288;-65
2022/08/04 02:34:22;;;;;;;0.00;0.00;;;;;;;13.57;64.30;100894.69;7364766;19;20014;-64
2022/08/04 02:36:49;;;;;;;;;;;;;;;13.55;61.99;100893.88;7363713;19;20363;-64
2022/08/04 02:39:18;;;;;;;0.00;0.00;;;;;;;13.39;63.77;100866.44;7362631;19;19934;-64
2022/08/04 02:41:46;;;;;;;0.00;0.00;;;;;;;13.48;64.35;100892.34;7364048;19;20013;-65
2022/08/04 02:44:12;;;;;;;0.00;0.00;;;;;;;13.43;64.64;100894.25;7362622;19;20007;-65
2022/08/04 02:46:40;;;;;;;0.00;0.00;;;;;;;13.41;64.64;100901.34;7365458;19;20010;-65
2022/08/04 02:49:09;;;;;;;0.00;0.00;;;;;;;13.36;64.72;100887.50;7361395;19;20028;-64
2022/08/04 02:51:40;;;;;;;0.00;0.00;;;;;;;13.36;64.79;100896.22;7362911;19;20010;-64
2022/08/04 02:54:06;;;;;;;0.00;0.00;;;;;;;13.32;65.16;100893.75;7362101;19;20486;-64
2022/08/04 02:56:34;;;;;;;0.00;0.00;;;;;;;13.35;65.47;100898.91;7362227;19;20029;-65
2022/08/04 02:59:06;;;;;;;0.00;0.00;;;;;;;13.37;64.89;100912.81;7364538;19;20557;-64
2022/08/04 03:01:33;;;;;;;0.00;0.00;;;;;;;13.35;65.50;100909.41;7360352;19;20014;-65
2022/08/04 03:04:35;;;;;;;0.00;0.00;;;;;;;13.31;64.53;100902.53;7352722;19;20037;-65
2022/08/04 03:07:28;;;;;;;0.00;0.00;;;;;;;13.36;64.14;100905.88;7258609;19;2004384;-64
2022/08/04 03:10:41;;;;;;;0.00;0.00;;;;;;;13.36;64.25;100911.09;7363443;19;20078;-64
2022/08/04 03:13:24;;;;;;;0.00;0.00;;;;;;;13.35;64.32;100914.66;7253542;19;2004316;-64
2022/08/04 03:15:58;;;;;;;0.00;0.00;;;;;;;13.33;65.45;100916.44;7364217;19;20013;-65
2022/08/04 03:18:45;;;;;;;0.00;0.00;;;;;;;13.32;65.21;100914.72;7357072;19;20018;-64
2022/08/04 03:21:29;;;;;;;0.00;0.00;;;;;;;13.30;64.83;100917.41;7363069;19;20042;-64
2022/08/04 03:24:15;;;;;;;0.00;0.00;;;;;;;13.29;65.16;100922.72;7361041;19;20562;-64
2022/08/04 03:26:51;;;;;;;0.00;0.00;;;;;;;13.25;65.80;100919.31;7364102;19;20014;-64
2022/08/04 03:29:31;;;;;;;0.00;0.00;;;;;;;13.27;65.07;100927.13;7362156;19;20454;-65
2022/08/04 03:32:27;;;;;;;0.00;0.00;;;;;;;13.24;64.81;100921.06;7363798;19;20018;-64
2022/08/04 03:35:10;;;;;;;0.00;0.00;;;;;;;13.23;64.97;100924.63;7257249;19;2004507;-65
2022/08/04 03:38:16;;;;;;;0.00;0.00;;;;;;;13.22;64.35;100930.72;7360444;19;20011;-64
2022/08/04 03:40:54;;;;;;;0.00;0.00;;;;;;;13.19;65.62;100930.81;7262953;19;2004186;-64
2022/08/04 03:43:51;;;;;;;0.00;0.00;;;;;;;13.18;64.35;100938.72;7363694;19;20007;-64
2022/08/04 03:46:47;;;;;;;0.00;0.00;;;;;;;13.16;64.63;100936.13;7259408;19;2004212;-64
2022/08/04 03:49:50;;;;;;;0.00;0.00;;;;;;;13.12;64.72;100939.75;7261458;19;2004323;-65
2022/08/04 03:53:08;;;;;;;0.00;0.00;;;;;;;13.09;64.57;100955.59;7260237;19;2004200;-65
2022/08/04 03:55:36;;;;;;;0.00;0.00;;;;;;;13.05;65.84;100948.72;7259387;19;2004354;-65
2022/08/04 03:58:04;;;;;;;0.00;0.00;;;;;;;13.02;65.76;100948.78;7362054;19;21286;-64
2022/08/04 04:00:35;;;;;;;0.00;0.00;;;;;;;13.01;65.96;100951.47;7362405;19;20473;-65
2022/08/04 04:03:19;;;;;;;0.05;0.05;;;;;;;12.97;66.14;100950.69;7359896;19;20006;-62
2022/08/04 04:05:50;;;;;;;0.00;0.00;;;;;;;12.96;66.00;100954.22;7363230;19;20022;-64
2022/08/04 04:08:33;;;;;;;0.00;0.00;;;;;;;12.92;66.38;100960.44;7363212;19;20451;-64
2022/08/04 04:11:11;;;;;;;0.00;0.00;;;;;;;12.92;66.07;100963.06;7361642;19;20019;-64
2022/08/04 04:14:00;;;;;;;0.00;0.00;;;;;;;12.90;65.79;100962.25;7362931;19;20022;-65
2022/08/04 04:16:56;;;;;;;0.00;0.00;;;;;;;12.86;65.49;100964.09;7365236;19;20074;-65
2022/08/04 04:19:35;;;;;;;0.00;0.00;;;;;;;12.81;66.05;100962.50;7261204;19;2004430;-64
2022/08/04 04:22:24;;;;;;;0.00;0.00;;;;;;;12.81;65.34;100970.38;7360339;19;20013;-64
2022/08/04 04:25:03;;;;;;;0.00;0.00;;;;;;;12.79;66.03;100977.41;7360306;19;20106;-64
2022/08/04 04:28:06;;;;;;;0.00;0.00;;;;;;;12.78;65.81;100983.56;7360518;19;20017;-65
2022/08/04 04:31:13;;;;;;;0.00;0.00;;;;;;;12.75;66.61;100981.88;7258535;19;2004457;-65
2022/08/04 04:33:59;;;;;;;0.00;0.00;;;;;;;12.75;65.52;100983.63;7260830;19;2004024;-64
2022/08/04 04:36:47;;;;;;;0.00;0.00;;;;;;;12.74;65.87;100993.25;7364164;19;20089;-65
2022/08/04 04:39:24;;;;;;;0.00;0.00;;;;;;;12.69;66.81;100995.16;7367188;19;20025;-65
2022/08/04 04:42:31;;;;;;;0.00;0.00;;;;;;;12.75;65.56;101007.22;7366856;19;20025;-64
2022/08/04 04:45:05;;;;;;;0.00;0.00;;;;;;;12.72;67.09;101009.03;7264660;19;2004048;-64
2022/08/04 04:47:53;;;;;;;0.00;0.00;;;;;;;12.73;66.25;101005.50;7367622;19;20010;-65
2022/08/04 04:50:29;;;;;;;;;;;;;;;12.75;64.45;101012.47;7364006;19;20007;-65
2022/08/04 04:53:28;;;;;;;0.00;0.00;;;;;;;12.68;66.14;101002.16;7367710;19;19958;-64
2022/08/04 04:56:15;;;;;;;0.00;0.00;;;;;;;12.73;66.17;101023.00;7266494;19;2004332;-65
2022/08/04 04:58:42;;;;;;;0.00;0.00;;;;;;;12.64;67.69;101007.50;7368231;19;20006;-65
2022/08/04 05:01:32;;;;;;;0.00;0.00;;;;;;;12.70;65.70;101023.91;7366796;19;20094;-64
2022/08/04 05:04:34;;;;;;;0.00;0.00;;;;;;;12.69;65.95;101022.22;7366788;19;20006;-64
2022/08/04 05:07:06;;;;;;;0.00;0.00;;;;;;;12.66;67.05;101026.66;7263316;19;2004477;-64
2022/08/04 05:09:46;;;;;;;0.00;0.00;;;;;;;12.65;67.38;101033.66;7366042;19;20018;-64
2022/08/04 05:12:34;;;;;;;0.00;0.00;;;;;;;12.64;66.67;101037.19;7367042;19;20014;-65
2022/08/04 05:15:04;;;;;;;0.00;0.00;;;;;;;12.64;67.39;101039.81;7366820;19;20014;-65
2022/08/04 05:17:35;;;;;;;0.00;0.00;;;;;;;12.63;67.31;101045.97;7367971;19;20014;-64
2022/08/04 05:20:13;;;;;;;0.00;0.00;;;;;;;12.63;67.55;101052.97;7365825;19;20027;-65
2022/08/04 05:22:51;;;;;;;0.00;0.00;;;;;;;12.31;67.52;100998.75;7366198;19;20078;-64
2022/08/04 05:25:24;;;;;;;0.00;0.00;;;;;;;12.63;67.73;101059.06;7367409;19;20439;-65
2022/08/04 05:28:18;;;;;;;0.00;0.00;;;;;;;12.63;66.49;101069.53;7366249;19;20046;-64
2022/08/04 05:30:49;;;;;;;0.00;0.00;;;;;;;12.62;68.10;101065.19;7264030;19;2004568;-65
2022/08/04 05:33:17;;;;;;;0.00;0.00;;;;;;;12.62;68.12;101067.81;7366335;19;20028;-64
2022/08/04 05:35:48;;;;;;;0.00;0.00;;;;;;;12.62;67.89;101059.97;7365379;19;21236;-65
2022/08/04 05:38:17;;;;;;;0.00;0.00;;;;;;;12.54;68.29;101051.44;7366551;19;20007;-64
2022/08/04 05:40:43;;;;;;;0.00;0.00;;;;;;;12.63;68.03;101077.41;7367374;19;20014;-64
2022/08/04 05:43:12;;;;;;;0.08;0.08;;;;;;;12.64;68.11;101073.88;7362982;19;20009;-64
2022/08/04 05:45:39;;;;;;;0.00;0.00;;;;;;;12.64;68.40;101075.63;7366871;19;20351;-64
2022/08/04 05:48:07;;;;;;;0.00;0.00;;;;;;;12.66;68.09;101069.44;7365622;19;20045;-64
2022/08/04 05:50:33;;;;;;;0.03;0.03;;;;;;;12.63;68.11;101068.69;7367643;19;20011;-65
2022/08/04 05:53:00;;;;;;;0.00;0.00;;;;;;;12.67;68.29;101084.28;7364853;19;20021;-64
2022/08/04 05:55:28;;;;;;;0.00;0.00;;;;;;;12.71;68.49;101101.63;7364832;19;20022;-65
2022/08/04 05:57:55;;;;;;;0.00;0.00;;;;;;;12.72;68.00;101092.88;7357388;19;20022;-64
2022/08/04 06:00:21;;;;;;;;;;;;;;;12.77;65.39;101095.38;7364879;19;20007;-64
2022/08/04 06:02:48;;;;;;;0.00;0.00;;;;;;;12.78;67.91;101101.50;7366978;19;19927;-64
2022/08/04 06:05:17;;;;;;;0.00;0.00;;;;;;;12.79;68.10;101108.44;7361721;19;20002;-64
2022/08/04 06:07:43;;;;;;;0.00;0.00;;;;;;;12.65;68.07;101099.16;7365518;19;20094;-64
2022/08/04 06:10:09;;;;;;;0.00;0.00;;;;;;;12.51;68.25;101069.81;7364152;19;20093;-65
2022/08/04 06:12:37;;;;;;;0.00;0.00;;;;;;;12.83;68.51;101118.81;7363302;19;20736;-65
2022/08/04 06:15:04;;;;;;;0.00;0.00;;;;;;;12.84;68.21;101128.41;7359388;19;20097;-65
2022/08/04 06:17:32;;;;;;;0.10;0.10;;;;;;;12.89;68.44;101136.16;7365093;19;20058;-63
2022/08/04 06:19:59;;;;;;;0.00;0.00;;;;;;;12.90;68.56;101130.00;7358949;19;20162;-65
2022/08/04 06:22:27;;;;;;;0.00;0.00;;;;;;;12.93;68.31;101137.81;7365057;19;20477;-65
2022/08/04 06:24:56;;;;;;;0.10;0.10;;;;;;;12.96;68.56;101132.47;7364640;19;20010;-64
2022/08/04 06:27:23;;;;;;;0.00;0.00;;;;;;;12.95;68.42;101130.75;7364432;19;20031;-64
2022/08/04 06:29:49;;;;;;;0.00;0.00;;;;;;;13.02;67.98;101136.69;7364485;19;20011;-64
2022/08/04 06:32:26;;;;;;;0.00;0.00;;;;;;;13.04;68.64;101138.38;7360508;19;20390;-64
2022/08/04 06:34:57;;;;;;;0.00;0.00;;;;;;;13.03;68.08;101134.03;7362474;19;20006;-64
2022/08/04 06:37:25;;;;;;;0.00;0.00;;;;;;;13.10;68.32;101151.31;7362133;19;20007;-65
2022/08/04 06:39:51;;;;;;;;;;;;;;;13.17;65.99;101146.78;7361886;19;20043;-64
2022/08/04 06:42:20;;;;;;;0.00;0.00;;;;;;;13.14;68.29;101142.47;7364219;19;19926;-65
2022/08/04 06:44:48;;;;;;;0.00;0.00;;;;;;;13.20;68.08;101152.81;7360463;19;20342;-64
2022/08/04 06:47:18;;;;;;;0.00;0.00;;;;;;;13.22;68.67;101147.53;7364510;19;20010;-64
2022/08/04 06:49:45;;;;;;;0.00;0.00;;;;;;;13.26;68.62;101157.06;7362143;19;20026;-65
2022/08/04 06:52:16;;;;;;;0.03;0.03;;;;;;;13.29;68.80;101151.75;7365016;19;20471;-65
2022/08/04 06:54:43;;;;;;;0.00;0.00;;;;;;;13.34;68.93;101154.25;7352391;19;21067;-64
2022/08/04 06:57:12;;;;;;;0.00;0.00;;;;;;;13.39;68.47;101152.34;7360989;19;20770;-64
2022/08/04 06:59:41;;;;;;;0.00;0.00;;;;;;;13.43;68.34;101153.97;7366458;19;20358;-65
2022/08/04 07:02:14;;;;;;;0.00;0.00;;;;;;;13.52;67.87;101161.59;7363676;19;20021;-64
2022/08/04 07:04:41;;;;;;;0.00;0.00;;;;;;;13.56;68.66;101165.00;7365007;19;20050;-65
2022/08/04 07:07:06;;;;;;;0.00;0.00;;;;;;;13.62;68.45;101175.31;7362975;19;20643;-63
2022/08/04 07:09:32;;;;;;;0.00;0.00;;;;;;;13.66;68.35;101172.56;7362872;19;20015;-64
2022/08/04 07:11:58;;;;;;;0.00;0.00;;;;;;;13.74;68.57;101173.25;7357850;19;20026;-64
2022/08/04 07:14:25;;;;;;;0.00;0.00;;;;;;;13.80;68.29;101185.31;7359057;19;20025;-64
2022/08/04 07:16:52;;;;;;;0.00;0.00;;;;;;;13.85;68.32;101190.44;7361355;19;20010;-64
2022/08/04 07:19:18;;;;;;;0.00;0.00;;;;;;;13.90;67.96;101185.94;7358281;19;20082;-64
2022/08/04 07:21:43;;;;;;;0.00;0.00;;;;;;;13.96;68.12;101185.75;7360112;19;20021;-64
2022/08/04 07:24:09;;;;;;;0.00;0.00;;;;;;;14.03;67.91;101187.28;7359445;19;20089;-65
2022/08/04 07:26:34;;;;;;;0.00;0.00;;;;;;;14.09;68.43;101197.63;7361100;19;20033;-65
2022/08/04 07:29:00;;;;;;;0.00;0.00;;;;;;;14.04;68.19;101181.13;7359172;19;20347;-64
2022/08/04 07:31:26;;;;;;;0.10;0.10;;;;;;;14.20;68.09;101192.91;7362303;19;20006;-64
2022/08/04 07:33:53;;;;;;;0.00;0.00;;;;;;;14.26;67.78;101190.09;7365664;19;20514;-64
2022/08/04 07:36:18;;;;;;;0.00;0.00;;;;;;;14.32;67.84;101194.28;7363226;19;20010;-64
2022/08/04 07:38:44;;;;;;;0.00;0.00;;;;;;;14.38;67.88;101198.50;7361921;19;20748;-65
2022/08/04 07:41:10;;;;;;;0.00;0.00;;;;;;;14.43;67.43;101193.97;7364429;19;20006;-64
2022/08/04 07:43:36;;;;;;;0.00;0.00;;;;;;;14.50;67.47;101204.28;7363131;19;20006;-65
2022/08/04 07:46:03;;;;;;;0.00;0.00;;;;;;;14.56;67.48;101208.50;7361452;19;20018;-64
2022/08/04 07:48:28;;;;;;;0.05;0.05;;;;;;;14.61;67.60;101203.09;7362543;19;20026;-63
2022/08/04 07:50:54;;;;;;;0.08;0.08;;;;;;;14.65;67.30;101187.19;7360028;19;20053;-65
2022/08/04 07:53:20;;;;;;;0.00;0.00;;;;;;;14.75;66.96;101201.75;7361829;19;20026;-64
2022/08/04 07:55:46;;;;;;;0.00;0.00;;;;;;;14.73;66.95;101195.66;7362552;19;20018;-64
2022/08/04 07:58:11;;;;;;;0.00;0.00;;;;;;;14.89;67.23;101205.69;7357818;19;20026;-63
2022/08/04 08:00:38;;;;;;;0.00;0.00;;;;;;;14.95;66.54;101205.47;7356791;19;20010;-62
2022/08/04 08:03:03;;;;;;;0.00;0.00;;;;;;;15.02;66.37;101212.28;7363839;19;20340;-62
2022/08/04 08:05:29;;;;;;;0.00;0.00;;;;;;;15.12;66.79;101221.59;7360793;19;20017;-64
2022/08/04 08:07:57;;;;;;;0.00;0.00;;;;;;;15.18;66.30;101224.00;7363844;19;20443;-64
2022/08/04 08:10:23;;;;;;;0.00;0.00;;;;;;;15.23;66.53;101211.56;7363875;19;20012;-64
2022/08/04 08:12:50;;;;;;;0.00;0.00;;;;;;;15.35;66.13;101219.94;7362927;19;20384;-63
2022/08/04 08:15:16;;;;;;;0.03;0.03;;;;;;;15.39;65.82;101218.94;7361939;19;20082;-64
2022/08/04 08:17:42;;;;;;;0.00;0.00;;;;;;;15.50;65.27;101222.91;7361022;19;20014;-64
2022/08/04 08:20:08;;;;;;;0.00;0.00;;;;;;;15.59;64.92;101221.72;7360233;19;20038;-64
2022/08/04 08:22:36;;;;;;;0.00;0.00;;;;;;;15.67;64.51;101226.78;7358515;19;20027;-64
2022/08/04 08:25:01;;;;;;;0.05;0.05;;;;;;;15.74;64.42;101229.13;7354368;19;20011;-64
2022/08/04 08:27:27;;;;;;;0.00;0.00;;;;;;;15.81;64.16;101235.00;7360710;19;20102;-64
2022/08/04 08:29:53;;;;;;;0.00;0.00;;;;;;;15.88;63.28;101228.63;7359622;19;20475;-64
2022/08/04 08:32:19;;;;;;;0.00;0.00;;;;;;;15.94;63.06;101230.16;7355112;19;20346;-64
2022/08/04 08:34:45;;;;;;;0.00;0.00;;;;;;;16.02;62.81;101233.41;7356988;19;20015;-65
2022/08/04 08:37:55;;;;;;;0.00;0.00;;;;;;;16.22;63.42;101240.53;7359798;19;20361;-65
2022/08/04 08:40:49;;;;;;;0.00;0.00;;;;;;;16.31;63.39;101227.88;7253779;19;2004524;-64
2022/08/04 08:43:27;;;;;;;0.00;0.00;;;;;;;16.50;62.64;101245.63;7258791;19;2004471;-64
2022/08/04 08:46:03;;;;;;;0.00;0.00;;;;;;;16.60;62.07;101245.22;7359335;19;20032;-64
2022/08/04 08:48:46;;;;;;;0.10;0.10;;;;;;;16.73;61.68;101243.00;7358482;19;20015;-64
2022/08/04 08:51:30;;;;;;;0.00;0.00;;;;;;;16.88;61.76;101245.91;7350267;19;20013;-64
2022/08/04 08:54:16;;;;;;;0.00;0.00;;;;;;;16.92;60.40;101247.53;7358096;19;20007;-62
2022/08/04 08:56:46;;;;;;;0.00;0.00;;;;;;;17.03;60.05;101242.66;7359125;19;20010;-64
2022/08/04 08:59:58;;;;;;;0.00;0.00;;;;;;;17.14;61.05;101248.38;7360610;19;20023;-64
2022/08/04 09:02:42;;;;;;;0.00;0.00;;;;;;;17.15;60.24;101239.53;7255825;19;2004351;-64
2022/08/04 09:05:35;;;;;;;0.00;0.00;;;;;;;17.27;61.10;101248.72;7356289;19;20337;-64
2022/08/04 09:08:26;;;;;;;0.05;0.05;;;;;;;17.34;59.95;101251.06;7257621;19;2004356;-64
2022/08/04 09:11:01;;;;;;;0.00;0.00;;;;;;;17.43;59.05;101256.84;7259264;19;2004302;-64
2022/08/04 09:13:35;;;;;;;0.00;0.00;;;;;;;17.51;59.04;101260.88;7360374;19;21163;-64
2022/08/04 09:16:06;;;;;;;0.00;0.00;;;;;;;17.59;58.06;101252.66;7357791;19;20420;-64
2022/08/04 09:18:51;;;;;;;0.05;0.05;;;;;;;17.78;58.42;101261.50;7362779;19;20154;-62
2022/08/04 09:21:41;;;;;;;0.00;0.00;;;;;;;18.04;58.61;101243.63;7360111;19;20506;-63
2022/08/04 09:24:16;;;;;;;0.00;0.00;;;;;;;18.32;58.60;101241.47;7366762;19;20011;-62
2022/08/04 09:27:04;;;;;;;0.00;0.00;;;;;;;18.71;57.45;101252.94;7363436;19;20042;-62
2022/08/04 09:29:32;;;;;;;0.03;0.03;;;;;;;18.97;55.68;101254.31;7366559;19;20011;-62
2022/08/04 09:32:04;;;;;;;0.00;0.00;;;;;;;19.26;55.51;101255.50;7359996;19;20014;-62
2022/08/04 09:34:52;;;;;;;0.03;0.03;;;;;;;19.41;54.79;101257.38;7361003;19;20054;-62
2022/08/04 09:37:26;;;;;;;0.00;0.00;;;;;;;19.81;55.80;101252.72;7363902;19;20078;-63
2022/08/04 09:40:05;;;;;;;0.10;0.10;;;;;;;20.17;55.60;101255.19;7351156;19;20006;-63
2022/08/04 09:42:36;;;;;;;0.10;0.10;;;;;;;20.53;53.69;101252.38;7351291;19;20053;-63
2022/08/04 09:45:06;;;;;;;0.00;0.00;;;;;;;20.86;51.32;101257.56;7351862;19;20778;-62
2022/08/04 09:47:52;;;;;;;0.05;0.05;;;;;;;21.25;53.41;101245.59;7353518;19;20043;-62
2022/08/04 09:50:37;;;;;;;0.00;0.00;;;;;;;21.48;52.81;101261.06;7349522;19;20067;-62
2022/08/04 09:53:21;;;;;;;0.08;0.08;;;;;;;21.44;49.09;101256.91;7350631;19;20457;-63
2022/08/04 09:56:02;;;;;;;0.00;0.00;;;;;;;21.67;51.77;101252.84;7351497;19;20043;-62
2022/08/04 09:58:52;;;;;;;0.00;0.00;;;;;;;21.99;51.92;101258.84;7347376;19;20007;-63
2022/08/04 10:01:21;;;;;;;0.10;0.10;;;;;;;22.10;48.24;101238.72;7262855;19;2004316;-63
2022/08/04 10:04:06;;;;;;;0.03;0.03;;;;;;;22.64;51.60;101254.84;7366198;19;20013;-62
2022/08/04 10:06:44;;;;;;;0.00;0.00;;;;;;;23.04;48.79;101259.31;7354224;19;20279;-63
2022/08/04 10:09:47;;;;;;;0.00;0.00;;;;;;;23.48;51.16;101258.16;7362567;19;20017;-63
2022/08/04 10:12:34;;;;;;;0.00;0.00;;;;;;;23.83;49.93;101262.91;7256399;19;2004476;-63
2022/08/04 10:15:15;;;;;;;0.00;0.00;;;;;;;24.23;48.69;101257.41;7365252;19;20010;-63
2022/08/04 10:17:55;;;;;;;0.00;0.00;;;;;;;24.64;48.07;101270.50;7361307;19;20007;-62
2022/08/04 10:20:55;;;;;;;0.05;0.05;;;;;;;24.93;47.73;101265.69;7359013;19;20082;-63
2022/08/04 10:23:20;;;;;;;0.10;0.10;;;;;;;25.07;44.86;101262.88;7263466;19;2004225;-63
2022/08/04 10:26:14;;;;;;;0.00;0.00;;;;;;;25.58;46.97;101270.59;7364343;19;20082;-63
2022/08/04 10:28:55;;;;;;;0.10;0.10;;;;;;;25.97;45.34;101265.81;7258955;19;2004501;-62
2022/08/04 10:31:29;;;;;;;0.00;0.00;;;;;;;26.35;42.90;101277.97;7364883;19;20131;-63
2022/08/04 10:34:20;;;;;;;0.00;0.00;;;;;;;26.78;44.59;101266.53;7360770;19;20018;-63
2022/08/04 10:36:55;;;;;;;0.10;0.10;;;;;;;26.82;40.61;101271.50;7259119;19;2004523;-63
2022/08/04 10:39:28;;;;;;;0.10;0.10;;;;;;;26.76;40.19;101265.78;7356665;19;20014;-62
2022/08/04 10:42:06;;;;;;;0.00;0.00;;;;;;;26.65;39.53;101275.53;7355915;19;20014;-63
2022/08/04 10:44:40;;;;;;;0.00;0.00;;;;;;;26.47;41.07;101279.72;7359404;19;20010;-63
2022/08/04 10:47:15;;;;;;;0.08;0.08;;;;;;;26.50;40.75;101282.13;7363805;19;20014;-63
2022/08/04 10:49:49;;;;;;;0.00;0.00;;;;;;;26.67;40.00;101278.13;7359110;19;20074;-63
2022/08/04 10:52:32;;;;;;;0.00;0.00;;;;;;;26.94;40.56;101291.06;7363901;19;20014;-63
2022/08/04 10:55:00;;;;;;;0.08;0.08;;;;;;;27.10;38.85;101285.31;7363778;19;20006;-62
2022/08/04 10:57:34;;;;;;;0.10;0.10;;;;;;;27.15;38.06;101267.88;7364361;19;19999;-63
2022/08/04 11:00:06;;;;;;;0.00;0.00;;;;;;;27.39;36.50;101297.16;7347913;19;20087;-63
2022/08/04 11:02:52;;;;;;;0.10;0.10;;;;;;;27.33;39.43;101294.16;7361781;19;20490;-63
2022/08/04 11:05:24;;;;;;;0.10;0.10;;;;;;;27.07;36.99;101299.84;7358929;19;20006;-62
2022/08/04 11:07:54;;;;;;;0.05;0.05;;;;;;;26.88;38.47;101296.94;7364221;19;20046;-62
2022/08/04 11:10:24;;;;;;;0.08;0.08;;;;;;;26.99;35.87;101294.22;7353495;19;20010;-62
2022/08/04 11:13:02;;;;;;;0.10;0.10;;;;;;;27.33;38.83;101294.16;7363823;19;20146;-62
2022/08/04 11:15:35;;;;;;;0.10;0.10;;;;;;;27.74;37.10;101295.19;7360635;19;20368;-62
2022/08/04 11:18:17;;;;;;;0.00;0.00;;;;;;;28.23;39.10;101293.59;7355684;19;20006;-63
2022/08/04 11:21:18;;;;;;;0.00;0.00;;;;;;;28.55;38.82;101298.84;7360936;19;21047;-62
2022/08/04 11:23:55;;;;;;;0.00;0.00;;;;;;;28.70;35.27;101295.63;7260549;19;2004490;-62
2022/08/04 11:26:42;;;;;;;0.10;0.10;;;;;;;29.06;34.09;101290.63;7358884;19;20604;-63
2022/08/04 11:29:16;;;;;;;0.10;0.10;;;;;;;29.28;33.46;101304.78;7360779;19;20019;-62
2022/08/04 11:31:48;;;;;;;0.10;0.10;;;;;;;29.38;35.97;101297.56;7362199;19;20006;-62
2022/08/04 11:34:22;;;;;;;0.10;0.10;;;;;;;29.59;33.66;101292.88;7361541;19;20014;-62
2022/08/04 11:37:08;;;;;;;0.10;0.10;;;;;;;29.97;35.40;101301.88;7361559;19;20052;-62
2022/08/04 11:39:36;;;;;;;0.10;0.10;;;;;;;30.25;32.99;101310.88;7360933;19;20074;-62
2022/08/04 11:42:23;;;;;;;0.10;0.10;;;;;;;30.47;32.42;101310.50;7360899;19;20014;-62
2022/08/04 11:44:56;;;;;;;0.00;0.00;;;;;;;30.63;30.72;101312.56;7363409;19;20378;-62
2022/08/04 11:47:25;;;;;;;0.03;0.03;;;;;;;30.80;29.44;101308.22;7359436;19;20753;-62
2022/08/04 11:50:03;;;;;;;0.00;0.00;;;;;;;31.22;32.90;101318.41;7363609;19;20014;-63
2022/08/04 11:52:31;;;;;;;0.10;0.10;;;;;;;31.51;29.74;101324.44;7359934;19;20031;-63
2022/08/04 11:54:58;;;;;;;0.00;0.00;;;;;;;31.85;30.58;101323.75;7363137;19;20015;-63
2022/08/04 11:57:24;;;;;;;0.10;0.10;;;;;;;32.01;28.61;101333.81;7359967;19;20022;-62
2022/08/04 11:59:54;;;;;;;0.10;0.10;;;;;;;32.05;29.22;101340.59;7364993;19;20010;-62
2022/08/04 12:02:49;;;;;;;0.10;0.10;;;;;;;31.93;31.52;101347.25;7363039;19;20032;-63
2022/08/04 12:05:19;;;;;;;0.00;0.00;;;;;;;31.62;30.11;101341.41;7261257;19;2004442;-63
2022/08/04 12:08:04;;;;;;;0.10;0.10;;;;;;;31.53;32.68;101345.91;7360290;19;20006;-62